Time;durP1;ratioP1;P1;durP2;ratioP2;P2;SDS_P1;SDS_P2;PMS_P1;PMS_P2;Temp;Humidity;BMP_temperature;BMP_pressure;BME280_temperature;BME280_humidity;BME280_pressure;Samples;Min_cycle;Max_cycle;Signal;HPM_P1;HPM_P2
2021/03/27 00:01:55;;;;;;;9.77;4.27;;;7.20;99.90;;;;;;4928496;29;20188;-92
2021/03/27 00:05:05;;;;;;;8.97;4.33;;;7.10;99.90;;;;;;4937806;29;20209;-91
2021/03/27 00:07:51;;;;;;;12.67;4.30;;;7.10;99.90;;;;;;4939818;29;20218;-92
2021/03/27 00:10:32;;;;;;;9.83;4.13;;;7.10;99.90;;;;;;4923611;29;20614;-93
2021/03/27 00:13:47;;;;;;;10.97;4.40;;;7.20;99.90;;;;;;4935271;29;20278;-93
2021/03/27 00:16:51;;;;;;;10.33;3.57;;;7.00;99.90;;;;;;4933861;29;20179;-92
2021/03/27 00:19:50;;;;;;;11.23;3.93;;;7.10;99.90;;;;;;4920312;29;20180;-92
2021/03/27 00:22:27;;;;;;;10.93;3.67;;;7.00;99.90;;;;;;4937048;29;20180;-93
2021/03/27 00:25:01;;;;;;;14.43;3.67;;;7.20;99.90;;;;;;4935077;29;20639;-93
2021/03/27 00:27:39;;;;;;;7.87;3.70;;;7.20;99.90;;;;;;4934900;29;20211;-93
2021/03/27 00:30:12;;;;;;;8.63;3.40;;;7.00;99.90;;;;;;4922777;29;20214;-93
2021/03/27 00:32:48;;;;;;;10.60;3.70;;;7.00;99.90;;;;;;4918542;29;20266;-92
2021/03/27 00:35:35;;;;;;;15.53;3.97;;;7.00;99.90;;;;;;4919840;29;20292;-92
2021/03/27 00:38:07;;;;;;;11.73;3.70;;;7.00;99.90;;;;;;4919296;29;20251;-92
2021/03/27 00:40:42;;;;;;;10.30;4.00;;;7.00;99.90;;;;;;4901186;29;20201;-92
2021/03/27 00:43:18;;;;;;;10.60;4.37;;;7.00;99.90;;;;;;4906766;29;20661;-92
2021/03/27 00:45:59;;;;;;;12.67;4.23;;;7.10;99.90;;;;;;4900562;29;20212;-93
2021/03/27 00:48:41;;;;;;;13.33;4.80;;;7.00;99.90;;;;;;4918196;29;20179;-92
2021/03/27 00:51:28;;;;;;;13.77;4.93;;;6.90;99.90;;;;;;4903941;29;20556;-93
2021/03/27 00:54:15;;;;;;;13.93;4.50;;;7.00;99.90;;;;;;4918747;29;20271;-92
2021/03/27 00:56:58;;;;;;;12.47;5.57;;;7.00;99.90;;;;;;4900700;29;20275;-92
2021/03/27 00:59:52;;;;;;;13.87;4.97;;;7.10;99.90;;;;;;4918502;29;20180;-92
2021/03/27 01:02:21;;;;;;;8.53;4.60;;;7.10;99.90;;;;;;4899005;29;20191;-93
2021/03/27 01:04:51;;;;;;;11.90;4.73;;;7.20;99.90;;;;;;4912400;29;20184;-93
2021/03/27 01:07:20;;;;;;;12.83;4.17;;;7.10;99.90;;;;;;4923208;29;20191;-94
2021/03/27 01:09:53;;;;;;;13.40;3.90;;;7.00;99.90;;;;;;4919303;29;20668;-92
2021/03/27 01:12:31;;;;;;;12.87;4.30;;;7.10;99.90;;;;;;4915869;29;20220;-92
2021/03/27 01:15:10;;;;;;;14.27;4.17;;;7.00;99.90;;;;;;4921163;29;20655;-92
2021/03/27 01:17:41;;;;;;;8.07;3.30;;;6.90;99.90;;;;;;4917243;29;20206;-92
2021/03/27 01:20:21;;;;;;;11.00;3.80;;;7.00;99.90;;;;;;4932944;29;20179;-92
2021/03/27 01:22:49;;;;;;;7.57;3.30;;;7.00;99.90;;;;;;4930724;29;20570;-92
2021/03/27 01:25:30;;;;;;;10.67;3.60;;;6.90;99.90;;;;;;4922532;29;20220;-93
2021/03/27 01:28:06;;;;;;;10.73;3.23;;;7.10;99.90;;;;;;4922732;29;20175;-92
2021/03/27 01:31:05;;;;;;;14.80;2.63;;;7.00;99.90;;;;;;4924112;29;20278;-92
2021/03/27 01:33:33;;;;;;;13.83;2.87;;;6.90;99.90;;;;;;4922409;29;20267;-92
2021/03/27 01:36:08;;;;;;;9.60;2.83;;;6.90;99.90;;;;;;4922613;29;20240;-92
2021/03/27 01:38:46;;;;;;;8.83;2.87;;;7.00;99.90;;;;;;4903454;29;20188;-91
2021/03/27 01:41:19;;;;;;;12.33;2.93;;;7.00;99.90;;;;;;4934657;29;20679;-92
2021/03/27 01:44:20;;;;;;;12.10;2.63;;;7.10;99.90;;;;;;4924048;29;20550;-90
2021/03/27 01:46:51;;;;;;;9.40;2.97;;;7.00;99.90;;;;;;4826811;29;20288;-91
2021/03/27 01:49:30;;;;;;;9.20;2.83;;;7.00;99.90;;;;;;4896380;29;20649;-91
2021/03/27 01:52:06;;;;;;;13.00;3.77;;;6.90;99.90;;;;;;4923187;29;20206;-92
2021/03/27 01:54:40;;;;;;;17.13;3.30;;;6.80;99.90;;;;;;4922255;29;20191;-91
2021/03/27 01:57:25;;;;;;;8.87;2.83;;;6.80;99.90;;;;;;4922481;29;20212;-91
2021/03/27 02:00:19;;;;;;;11.57;3.93;;;6.80;99.90;;;;;;4922359;29;20652;-92
2021/03/27 02:02:50;;;;;;;10.67;3.83;;;6.70;99.90;;;;;;4914125;29;20205;-92
2021/03/27 02:05:26;;;;;;;10.10;3.27;;;6.80;99.90;;;;;;4912767;29;20302;-92
2021/03/27 02:07:56;;;;;;;8.90;3.30;;;6.80;99.90;;;;;;4920978;29;20180;-92
2021/03/27 02:10:31;;;;;;;12.57;3.20;;;6.80;99.90;;;;;;4937757;29;20276;-92
2021/03/27 02:13:04;;;;;;;20.70;3.67;;;6.80;99.90;;;;;;4914105;29;20703;-92
2021/03/27 02:15:51;;;;;;;13.23;3.40;;;6.90;99.90;;;;;;4908824;29;20187;-92
2021/03/27 02:18:31;;;;;;;14.13;3.23;;;6.90;99.90;;;;;;4930314;28;20180;-92
2021/03/27 02:21:11;;;;;;;11.60;3.20;;;6.90;99.90;;;;;;4922816;29;20191;-92
2021/03/27 02:24:04;;;;;;;13.63;3.70;;;6.90;99.90;;;;;;4921565;29;20199;-92
2021/03/27 02:26:56;;;;;;;11.37;2.97;;;6.90;99.90;;;;;;4935763;29;20287;-92
2021/03/27 02:29:28;;;;;;;12.00;3.57;;;7.00;99.90;;;;;;4919491;29;20176;-92
2021/03/27 02:32:21;;;;;;;12.97;3.50;;;7.00;99.90;;;;;;4921354;29;20199;-92
2021/03/27 02:35:25;;;;;;;13.27;3.20;;;6.90;99.90;;;;;;4918864;29;20176;-93
2021/03/27 02:38:36;;;;;;;14.10;3.20;;;7.10;99.90;;;;;;4927180;29;20275;-93
2021/03/27 02:41:02;;;;;;;18.07;4.00;;;7.00;99.90;;;;;;4903541;29;20420;-93
2021/03/27 02:43:43;;;;;;;15.83;3.70;;;7.00;99.90;;;;;;4913022;29;20210;-92
2021/03/27 02:46:33;;;;;;;12.27;3.20;;;7.00;99.90;;;;;;4917205;29;20220;-92
2021/03/27 02:49:17;;;;;;;12.97;4.07;;;6.90;99.90;;;;;;4920876;29;20232;-92
2021/03/27 02:52:25;;;;;;;12.40;3.80;;;7.00;99.90;;;;;;4936741;29;20191;-92
2021/03/27 02:55:18;;;;;;;13.23;3.27;;;7.00;99.90;;;;;;4908068;29;20192;-93
2021/03/27 02:57:57;;;;;;;12.07;2.67;;;7.10;99.90;;;;;;4901902;29;20632;-92
2021/03/27 03:01:04;;;;;;;14.17;2.67;;;7.20;99.90;;;;;;4914529;29;20197;-93
2021/03/27 03:04:14;;;;;;;14.17;3.50;;;7.20;99.90;;;;;;4917272;29;20261;-93
2021/03/27 03:10:16;;;;;;;15.63;3.40;;;7.10;99.90;;;;;;4909177;29;20244;-93
2021/03/27 03:13:20;;;;;;;17.13;4.17;;;7.00;99.90;;;;;;4911827;29;20188;-93
2021/03/27 03:16:18;;;;;;;15.00;4.47;;;7.10;99.90;;;;;;4868546;29;20188;-92
2021/03/27 03:18:59;;;;;;;19.03;5.13;;;7.20;99.90;;;;;;4926997;29;20215;-92
2021/03/27 03:21:28;;;;;;;13.77;4.33;;;7.00;99.90;;;;;;4911061;29;20193;-92
2021/03/27 03:24:33;;;;;;;21.30;4.90;;;7.20;99.90;;;;;;4915583;29;20185;-93
2021/03/27 03:27:13;;;;;;;19.67;4.73;;;7.10;99.90;;;;;;4913540;29;20310;-92
2021/03/27 03:29:54;;;;;;;19.93;5.17;;;7.20;99.90;;;;;;4913266;29;20279;-92
2021/03/27 03:32:42;;;;;;;12.70;4.10;;;7.10;99.90;;;;;;4918979;29;20187;-92
2021/03/27 03:35:13;;;;;;;22.47;3.97;;;7.10;99.90;;;;;;4915338;29;20187;-92
2021/03/27 03:37:42;;;;;;;17.30;3.63;;;7.00;99.90;;;;;;4916662;29;20248;-91
2021/03/27 03:40:20;;;;;;;14.20;3.17;;;7.10;99.90;;;;;;4919215;29;20275;-93
2021/03/27 03:43:12;;;;;;;19.87;3.43;;;7.10;99.90;;;;;;4917236;29;20661;-93
2021/03/27 03:45:53;;;;;;;18.80;3.80;;;7.20;99.90;;;;;;4918448;29;20358;-92
2021/03/27 03:48:43;;;;;;;15.03;3.13;;;7.20;99.90;;;;;;4914860;29;20167;-91
2021/03/27 03:51:26;;;;;;;20.07;3.03;;;7.20;99.90;;;;;;4928903;29;20188;-91
2021/03/27 03:54:16;;;;;;;19.57;3.30;;;7.10;99.90;;;;;;4908721;29;20626;-91
2021/03/27 03:57:10;;;;;;;20.40;3.37;;;7.00;99.90;;;;;;4920119;29;20191;-92
2021/03/27 03:59:52;;;;;;;13.53;2.70;;;7.00;99.90;;;;;;4935344;29;20563;-92
2021/03/27 04:03:10;;;;;;;16.50;2.97;;;7.00;99.90;;;;;;4919503;29;20201;-92
2021/03/27 04:05:58;;;;;;;15.27;2.77;;;7.20;99.90;;;;;;4909468;29;20218;-93
2021/03/27 04:08:32;;;;;;;15.00;2.80;;;7.10;99.90;;;;;;4918446;29;20184;-92
2021/03/27 04:11:26;;;;;;;14.27;3.17;;;7.30;99.90;;;;;;4907541;29;20227;-93
2021/03/27 04:14:00;;;;;;;16.37;2.60;;;7.20;99.90;;;;;;4892707;29;20196;-92
2021/03/27 04:16:29;;;;;;;16.80;2.93;;;7.30;99.90;;;;;;4919372;29;20214;-92
2021/03/27 04:19:01;;;;;;;26.93;4.10;;;7.30;99.90;;;;;;4904162;29;20191;-92
2021/03/27 04:21:51;;;;;;;15.83;3.07;;;7.30;99.90;;;;;;4919877;29;20190;-92
2021/03/27 04:24:45;;;;;;;11.50;2.90;;;7.30;99.90;;;;;;4914390;29;20184;-92
2021/03/27 04:27:37;;;;;;;18.60;3.47;;;7.30;99.90;;;;;;4918171;29;20310;-92
2021/03/27 04:30:25;;;;;;;9.73;2.83;;;7.20;99.90;;;;;;4912780;29;20193;-92
2021/03/27 04:33:10;;;;;;;12.60;3.10;;;6.90;99.90;;;;;;4901332;29;20279;-92
2021/03/27 04:35:50;;;;;;;13.23;3.20;;;6.90;99.90;;;;;;4916001;29;20219;-93
2021/03/27 04:39:01;;;;;;;17.57;3.00;;;6.80;99.90;;;;;;4919508;29;20192;-93
2021/03/27 04:42:03;;;;;;;10.27;2.63;;;6.70;99.90;;;;;;4932766;29;20195;-93
2021/03/27 04:44:58;;;;;;;15.00;2.90;;;6.80;99.90;;;;;;4908087;29;20196;-93
2021/03/27 04:47:49;;;;;;;;;;;;;;;;;;;;;
2021/03/27 04:51:19;;;;;;;;;;;;;;;;;;;;;
2021/03/27 06:10:44;;;;;;;10.70;3.50;;;5.90;99.90;;;;;;4955613;28;20218;-94
2021/03/27 06:13:47;;;;;;;10.80;3.40;;;5.90;99.90;;;;;;4931646;29;20665;-93
2021/03/27 06:16:13;;;;;;;14.33;3.40;;;5.90;99.90;;;;;;4941606;29;20189;-93
2021/03/27 06:19:16;;;;;;;11.73;4.20;;;5.90;99.90;;;;;;4938266;29;20184;-92
2021/03/27 06:22:10;;;;;;;16.20;4.73;;;5.90;99.90;;;;;;4941068;29;20186;-93
2021/03/27 06:24:59;;;;;;;16.10;4.43;;;5.90;99.90;;;;;;4920121;29;20204;-91
2021/03/27 06:28:08;;;;;;;10.67;4.00;;;6.00;99.90;;;;;;4924438;29;20239;-93
2021/03/27 06:30:59;;;;;;;13.67;3.80;;;6.10;99.90;;;;;;4937429;29;20184;-93
2021/03/27 06:33:39;;;;;;;19.17;4.70;;;6.20;99.90;;;;;;4915741;29;20183;-91
2021/03/27 06:36:28;;;;;;;14.77;4.17;;;6.30;99.90;;;;;;4937219;29;20183;-91
2021/03/27 06:39:32;;;;;;;14.07;4.07;;;6.50;99.90;;;;;;4921145;29;20184;-93
2021/03/27 06:42:17;;;;;;;12.27;3.80;;;6.60;99.90;;;;;;4921239;29;20191;-93
2021/03/27 06:45:36;;;;;;;13.37;3.90;;;6.50;99.90;;;;;;4936875;29;20187;-94
2021/03/27 06:48:25;;;;;;;19.70;3.90;;;6.50;99.90;;;;;;4901027;29;20207;-93
2021/03/27 06:54:20;;;;;;;13.23;2.80;;;6.70;99.90;;;;;;4938326;29;20195;-92
2021/03/27 06:57:04;;;;;;;19.87;3.00;;;6.90;99.90;;;;;;4946630;28;20629;-92
2021/03/27 06:59:48;;;;;;;17.63;3.13;;;6.80;99.90;;;;;;4923834;29;20648;-92
2021/03/27 07:02:42;;;;;;;13.30;3.03;;;6.70;99.90;;;;;;4935665;29;20199;-93
2021/03/27 07:05:34;;;;;;;12.07;2.60;;;6.70;99.90;;;;;;4920848;29;20216;-91
2021/03/27 07:08:23;;;;;;;15.57;3.03;;;6.60;99.90;;;;;;4916626;29;20192;-93
2021/03/27 07:11:07;;;;;;;11.33;2.77;;;6.60;99.90;;;;;;4917139;29;20200;-93
2021/03/27 07:13:57;;;;;;;15.50;2.47;;;6.70;99.90;;;;;;4925393;29;20195;-93
2021/03/27 07:16:29;;;;;;;10.70;2.90;;;6.80;99.90;;;;;;4946395;29;20184;-94
2021/03/27 07:19:23;;;;;;;10.03;2.43;;;6.70;99.90;;;;;;4958549;28;20199;-91
2021/03/27 07:22:11;;;;;;;13.27;2.30;;;6.70;99.90;;;;;;4960460;28;20214;-94
2021/03/27 07:25:00;;;;;;;13.17;3.10;;;6.80;99.90;;;;;;4921315;29;20188;-93
2021/03/27 07:27:45;;;;;;;14.90;2.47;;;7.10;99.90;;;;;;4922884;29;20191;-90
2021/03/27 07:30:39;;;;;;;16.87;2.43;;;7.10;99.90;;;;;;4922107;29;20244;-90
2021/03/27 07:33:11;;;;;;;11.07;2.80;;;7.10;99.90;;;;;;4922584;29;20192;-91
2021/03/27 07:35:40;;;;;;;16.37;3.03;;;7.20;99.90;;;;;;4937596;29;20764;-91
2021/03/27 07:38:27;;;;;;;13.20;2.33;;;7.20;99.90;;;;;;4921189;29;20232;-91
2021/03/27 07:40:53;;;;;;;10.17;2.80;;;7.30;99.90;;;;;;4938363;29;20210;-91
2021/03/27 07:43:56;;;;;;;12.77;2.80;;;7.40;99.90;;;;;;4938338;29;20229;-91
2021/03/27 07:46:55;;;;;;;19.53;3.03;;;7.30;99.90;;;;;;4919098;29;20228;-91
2021/03/27 07:49:54;;;;;;;15.43;2.70;;;7.20;99.90;;;;;;4921599;29;20223;-92
2021/03/27 07:52:41;;;;;;;12.97;2.43;;;7.30;99.90;;;;;;4926441;29;20256;-92
2021/03/27 07:55:31;;;;;;;15.00;2.63;;;7.30;99.90;;;;;;4919739;29;20259;-93
2021/03/27 07:58:26;;;;;;;12.87;2.47;;;7.30;99.90;;;;;;4936753;29;20196;-93
2021/03/27 08:01:40;;;;;;;12.80;2.70;;;7.50;99.90;;;;;;4919965;29;20203;-91
2021/03/27 09:37:30;;;;;;;;;;;;;;;;;;;;;
2021/03/27 09:44:31;;;;;;;;;;;;;;;;;;;;;
2021/03/27 09:58:38;;;;;;;;;;;;;;;;;;;;;
2021/03/27 10:12:13;;;;;;;;;;;;;;;;;;;;;
2021/03/27 10:17:58;;;;;;;7.40;2.33;;;9.50;95.80;;;;;;5383512;23;20242;-95
2021/03/27 10:20:35;;;;;;;8.03;2.10;;;9.80;95.00;;;;;;4945954;29;20258;-89
2021/03/27 10:23:33;;;;;;;9.67;2.17;;;10.00;94.30;;;;;;4946378;29;20206;-92
2021/03/27 10:26:08;;;;;;;9.97;2.13;;;9.90;92.30;;;;;;4931618;29;20242;-91
2021/03/27 10:28:42;;;;;;;8.00;2.67;;;9.90;92.10;;;;;;4943602;29;20545;-91
2021/03/27 10:31:20;;;;;;;9.17;2.40;;;9.70;92.40;;;;;;4945573;29;20183;-91
2021/03/27 13:12:37;;;;;;;7.03;2.13;;;16.30;49.50;;;;;;4957107;29;20672;-91
2021/03/27 13:15:17;;;;;;;6.87;2.00;;;16.40;50.40;;;;;;4945203;29;20233;-90
